Map

Track Data

SID SEASON NUMBER BASIN SUBBASIN NAME ISO_TIME NATURE LAT LON WMO_WIND WMO_PRES WMO_AGENCY TRACK_TYPE DIST2LAND LANDFALL IFLAG USA_AGENCY USA_ATCF_ID USA_LAT USA_LON USA_RECORD USA_STATUS USA_WIND USA_PRES USA_SSHS USA_R34_NE USA_R34_SE USA_R34_SW USA_R34_NW USA_R50_NE USA_R50_SE USA_R50_SW USA_R50_NW USA_R64_NE USA_R64_SE USA_R64_SW USA_R64_NW USA_POCI USA_ROCI USA_RMW USA_EYE TOKYO_LAT TOKYO_LON TOKYO_GRADE TOKYO_WIND TOKYO_PRES TOKYO_R50_DIR TOKYO_R50_LONG TOKYO_R50_SHORT TOKYO_R30_DIR TOKYO_R30_LONG TOKYO_R30_SHORT TOKYO_LAND CMA_LAT CMA_LON CMA_CAT CMA_WIND CMA_PRES HKO_LAT HKO_LON HKO_CAT HKO_WIND HKO_PRES NEWDELHI_LAT NEWDELHI_LON NEWDELHI_GRADE NEWDELHI_WIND NEWDELHI_PRES NEWDELHI_CI NEWDELHI_DP NEWDELHI_POCI REUNION_LAT REUNION_LON REUNION_TYPE REUNION_WIND REUNION_PRES REUNION_TNUM REUNION_CI REUNION_RMW REUNION_R34_NE REUNION_R34_SE REUNION_R34_SW REUNION_R34_NW REUNION_R50_NE REUNION_R50_SE REUNION_R50_SW REUNION_R50_NW REUNION_R64_NE REUNION_R64_SE REUNION_R64_SW REUNION_R64_NW BOM_LAT BOM_LON BOM_TYPE BOM_WIND BOM_PRES BOM_TNUM BOM_CI BOM_RMW BOM_R34_NE BOM_R34_SE BOM_R34_SW BOM_R34_NW BOM_R50_NE BOM_R50_SE BOM_R50_SW BOM_R50_NW BOM_R64_NE BOM_R64_SE BOM_R64_SW BOM_R64_NW BOM_ROCI BOM_POCI BOM_EYE BOM_POS_METHOD BOM_PRES_METHOD NADI_LAT NADI_LON NADI_CAT NADI_WIND NADI_PRES WELLINGTON_LAT WELLINGTON_LON WELLINGTON_WIND WELLINGTON_PRES DS824_LAT DS824_LON DS824_STAGE DS824_WIND DS824_PRES TD9636_LAT TD9636_LON TD9636_STAGE TD9636_WIND TD9636_PRES TD9635_LAT TD9635_LON TD9635_WIND TD9635_PRES TD9635_ROCI NEUMANN_LAT NEUMANN_LON NEUMANN_CLASS NEUMANN_WIND NEUMANN_PRES MLC_LAT MLC_LON MLC_CLASS MLC_WIND MLC_PRES USA_GUST BOM_GUST BOM_GUST_PER REUNION_GUST REUNION_GUST_PER USA_SEAHGT USA_SEARAD_NE USA_SEARAD_SE USA_SEARAD_SW USA_SEARAD_NW STORM_SPEED STORM_DIR
1981011S12185 1981 2 SP MM ARTHUR 1981-01-11 00:00:00 NR -11.8000 185.000 30 997 wellington main 305 305 ________O_____ -1 -11.8000 -175.000 30 997 6 246
1981011S12185 1981 2 SP MM ARTHUR 1981-01-11 03:00:00 NR -11.9283 184.708 main 325 325 ________P_____ -1 -11.9283 -175.292 30 997 6 246
1981011S12185 1981 2 SP MM ARTHUR 1981-01-11 06:00:00 NR -12.0552 184.403 main 341 341 ________P_____ -1 -12.0552 -175.597 30 997 7 248
1981011S12185 1981 2 SP MM ARTHUR 1981-01-11 09:00:00 NR -12.1795 184.071 main 366 366 ________P_____ -1 -12.1795 -175.929 30 997 7 250
1981011S12185 1981 2 SP MM ARTHUR 1981-01-11 12:00:00 NR -12.3000 183.700 30 997 wellington main 402 402 ________O_____ -1 -12.3000 -176.300 30 997 8 253
1981011S12185 1981 2 SP MM ARTHUR 1981-01-11 15:00:00 NR -12.4166 183.278 main 440 440 ________P_____ -1 -12.4166 -176.722 30 997 19 263
1981011S12185 1981 2 SP MM ARTHUR 1981-01-11 18:00:00 TS -12.5197 181.817 main 462 423 O_______P_O_O_ jtwc_sh SH091981 -12.5000 -179.500 20 -1 -12.5345 -177.196 30 997 -12.5000 -179.500 1 20 -12.5000 -179.500 TC 20 22 264
1981011S12185 1981 2 SP MM ARTHUR 1981-01-11 21:00:00 TS -12.6551 181.034 main 409 386 P_______P_P_P_ SH091981 -12.6376 -179.800 22 -1 -12.6601 -177.722 30 997 -12.6798 -179.789 1 22 -12.6376 -179.800 TC 22 14 258
1981011S12185 1981 2 SP MM ARTHUR 1981-01-12 00:00:00 TS -12.8133 180.458 30 997 wellington main 386 358 O_______O_P_O_ jtwc_sh SH091981 -12.8000 179.900 25 -1 -12.8000 -178.300 30 997 -12.8576 179.918 1 25 -12.8000 179.900 TC 25 11 252
1981011S12185 1981 2 SP MM ARTHUR 1981-01-12 03:00:00 TS -12.9961 179.966 main 358 336 P_______P_P_P_ SH091981 -13.0000 179.600 27 -1 -12.9530 -178.953 32 995 -13.0316 179.616 1 27 -13.0000 179.600 TC 27 9 247
1981011S12185 1981 2 SP MM ARTHUR 1981-01-12 06:00:00 TS -13.1802 179.562 main 336 327 O_______P_O_O_ jtwc_sh SH091981 -13.2000 179.300 30 -1 -13.1208 -179.650 35 993 -13.2000 179.300 1 30 -13.2000 179.300 TC 30 9 246
1981011S12185 1981 2 SP MM ARTHUR 1981-01-12 09:00:00 TS -13.3414 179.159 main 330 317 P_______P_P_P_ SH091981 -13.3499 179.007 30 -1 -13.3031 179.653 37 991 -13.3628 178.970 1 31 -13.3499 179.007 TC 30 8 247
1981011S12185 1981 2 SP MM ARTHUR 1981-01-12 12:00:00 TS -13.5069 178.759 40 990 wellington main 320 314 O_______O_P_O_ jtwc_sh SH091981 -13.5000 178.700 30 -1 -13.5000 179.000 40 990 -13.5276 178.635 1 32 -13.5000 178.700 TC 30 9 246
1981011S12185 1981 2 SP MM ARTHUR 1981-01-12 15:00:00 TS -13.6960 178.348 main 318 310 P_______P_P_P_ SH091981 -13.6850 178.350 32 -1 -13.7104 178.385 43 987 -13.7035 178.307 1 33 -13.6850 178.350 TC 32 9 243
1981011S12185 1981 2 SP MM ARTHUR 1981-01-12 18:00:00 TS -13.9087 177.957 main 310 302 O_______P_O_O_ jtwc_sh SH091981 -13.9000 178.000 35 0 -13.9349 177.828 47 985 -13.9000 178.000 2 35 -13.9000 178.000 TC 35 9 238
1981011S12185 1981 2 SP MM ARTHUR 1981-01-12 21:00:00 TS -14.1441 177.601 main 306 287 P_______P_P_P_ SH091981 -14.1425 177.677 37 0 -14.1669 177.357 51 982 -14.1244 177.692 2 37 -14.1425 177.677 TC 37 8 233
1981011S12185 1981 2 SP MM ARTHUR 1981-01-13 00:00:00 TS -14.3925 177.303 55 980 wellington main 287 278 O_______O_P_O_ jtwc_sh SH091981 -14.4000 177.400 40 0 -14.4000 177.000 55 980 -14.3700 177.410 2 40 -14.4000 177.400 TC 40 7 227
1981011S12185 1981 2 SP MM ARTHUR 1981-01-13 03:00:00 TS -14.6337 177.064 main 278 264 P_______P_P_P_ SH091981 -14.6500 177.162 42 0 -14.6040 176.756 57 977 -14.6307 177.173 2 42 -14.6500 177.162 TC 42 6 218
1981011S12185 1981 2 SP MM ARTHUR 1981-01-13 06:00:00 TS -14.8779 176.907 main 264 255 O_______P_O_O_ jtwc_sh SH091981 -14.9000 177.000 45 0 -14.8118 176.627 60 975 -14.9000 177.000 2 45 -14.9000 177.000 TC 45 5 205
1981011S12185 1981 2 SP MM ARTHUR 1981-01-13 09:00:00 TS -15.1187 176.830 main 255 232 P_______P_P_P_ SH091981 -15.1425 176.920 47 0 -15.0386 176.585 62 972 -15.1514 176.894 2 47 -15.1425 176.920 TC 47 5 190
1981011S12185 1981 2 SP MM ARTHUR 1981-01-13 12:00:00 TS -15.3781 176.813 65 970 wellington main 232 219 O_______O_P_O_ jtwc_sh SH091981 -15.4000 176.900 50 0 -15.3000 176.600 65 970 -15.4123 176.852 2 50 -15.4000 176.900 TC 50 6 183
1981011S12185 1981 2 SP MM ARTHUR 1981-01-13 15:00:00 TS -15.6650 176.809 main 213 183 P_______P_P_P_ SH091981 -15.6850 176.885 52 0 -15.5978 176.604 66 968 -15.6921 176.860 2 52 -15.6850 176.885 TC 52 6 179
1981011S12185 1981 2 SP MM ARTHUR 1981-01-13 18:00:00 TS -15.9831 176.840 main 183 148 O_______P_O_O_ jtwc_sh SH091981 -16.0000 176.900 55 0 -15.9324 176.660 67 967 -16.0000 176.900 2 55 -16.0000 176.900 TC 55 7 173
1981011S12185 1981 2 SP MM ARTHUR 1981-01-13 21:00:00 TS -16.3283 176.889 main 148 104 P_______P_P_P_ SH091981 -16.3350 176.935 57 0 -16.3009 176.761 68 966 -16.3421 176.926 2 57 -16.3350 176.935 TC 57 7 170
1981011S12185 1981 2 SP MM ARTHUR 1981-01-14 00:00:00 TS -16.7031 176.971 70 965 wellington main 104 61 O_______O_P_O_ jtwc_sh SH091981 -16.7000 177.000 60 0 -16.7000 176.900 70 965 -16.7124 176.983 2 60 -16.7000 177.000 TC 60 8 168
1981011S12185 1981 2 SP MM ARTHUR 1981-01-14 03:00:00 TS -17.1029 177.069 main 61 23 P_______P_P_P_ SH091981 -17.0925 177.078 62 0 -17.1253 177.048 70 965 -17.1015 177.073 2 62 -17.0925 177.078 TC 62 9 164
1981011S12185 1981 2 SP MM ARTHUR 1981-01-14 06:00:00 TS -17.5194 177.208 main 23 0 O_______P_O_O_ jtwc_sh SH091981 -17.5000 177.200 65 1 -17.5774 177.233 70 965 -17.5000 177.200 4 65 -17.5000 177.200 TC 65 9 159
1981011S12185 1981 2 SP MM ARTHUR 1981-01-14 09:00:00 TS -17.9324 177.394 main 0 0 P_______P_P_P_ SH091981 -17.9000 177.385 67 1 -18.0408 177.451 70 965 -17.8888 177.356 4 67 -17.9000 177.385 TC 67 9 155
1981011S12185 1981 2 SP MM ARTHUR 1981-01-14 12:00:00 TS -18.3463 177.612 70 965 wellington main 11 11 O_______O_P_O_ jtwc_sh SH091981 -18.3000 177.600 70 1 -18.5000 177.700 70 965 -18.2850 177.548 4 70 -18.3000 177.600 TC 70 9 153
1981011S12185 1981 2 SP MM ARTHUR 1981-01-14 15:00:00 TS -18.7543 177.837 main 56 55 P_______P_P_P_ SH091981 -18.7000 177.793 72 1 -18.9284 177.995 68 966 -18.6887 177.766 4 72 -18.7000 177.793 TC 72 9 152
1981011S12185 1981 2 SP MM ARTHUR 1981-01-14 18:00:00 TS -19.1626 178.079 main 100 100 O_______P_O_O_ jtwc_sh SH091981 -19.1000 178.000 75 1 -19.3504 178.315 67 967 -19.1000 178.000 4 75 -19.1000 178.000 TC 75 9 150
1981011S12185 1981 2 SP MM ARTHUR 1981-01-14 21:00:00 TS -19.5698 178.342 main 145 145 P_______P_P_P_ SH091981 -19.4925 178.243 72 1 -19.7722 178.627 66 968 -19.5220 178.256 4 72 -19.4925 178.243 TC 72 10 149
1981011S12185 1981 2 SP MM ARTHUR 1981-01-15 00:00:00 TS -19.9876 178.606 65 970 wellington main 194 194 O_______O_P_O_ jtwc_sh SH091981 -19.9000 178.500 70 1 -20.2000 178.900 65 970 -19.9502 178.522 4 70 -19.9000 178.500 TC 70 10 151
1981011S12185 1981 2 SP MM ARTHUR 1981-01-15 03:00:00 TS -20.4302 178.855 main 246 246 P_______P_P_P_ SH091981 -20.3500 178.750 67 1 -20.6426 179.142 62 972 -20.3783 178.777 4 67 -20.3500 178.750 TC 67 10 153
1981011S12185 1981 2 SP MM ARTHUR 1981-01-15 06:00:00 TS -20.8731 179.084 main 305 305 O_______P_O_O_ jtwc_sh SH091981 -20.8000 179.000 65 1 -21.0922 179.334 60 975 -20.8000 179.000 4 65 -20.8000 179.000 TC 65 10 153
1981011S12185 1981 2 SP MM ARTHUR 1981-01-15 09:00:00 TS -21.2788 179.315 main 354 354 P_______P_P_P_ SH091981 -21.2076 179.287 62 0 -21.5457 179.460 57 977 -21.1542 179.225 4 62 -21.2076 179.287 TC 62 9 156
1981011S12185 1981 2 SP MM ARTHUR 1981-01-15 12:00:00 TS -21.6774 179.476 55 980 wellington main 403 403 O_______O_P_O_ jtwc_sh SH091981 -21.6000 179.500 60 0 -22.0000 179.500 55 980 -21.5097 179.406 4 60 -21.6000 179.500 TC 60 8 166
1981011S12185 1981 2 SP MM ARTHUR 1981-01-15 15:00:00 TS -22.0635 179.527 main 446 446 P_______P_P_P_ SH091981 -21.9549 179.575 57 0 -22.4337 179.449 53 981 -21.9104 179.508 4 57 -21.9549 179.575 TC 57 8 181
1981011S12185 1981 2 SP MM ARTHUR 1981-01-15 18:00:00 TS -22.5175 179.453 main 488 486 O_______P_O_O_ jtwc_sh SH091981 -22.4000 179.500 55 0 -22.8700 179.313 52 982 -22.4000 179.500 2 55 -22.4000 179.500 TC 55 11 193
1981011S12185 1981 2 SP MM ARTHUR 1981-01-15 21:00:00 TS -23.1263 179.263 main 548 548 P_______P_P_P_ SH091981 -23.0476 179.295 50 0 -23.3212 179.120 51 983 -23.0886 179.343 2 50 -23.0476 179.295 TC 50 14 198
1981011S12185 1981 2 SP MM ARTHUR 1981-01-16 00:00:00 TS -23.8145 178.993 50 985 wellington main 620 620 O_______O_P_O_ jtwc_sh SH091981 -23.8000 179.000 45 0 -23.8000 178.900 50 985 -23.8580 179.074 2 45 -23.8000 179.000 TC 45 15 200
1981011S12185 1981 2 SP MM ARTHUR 1981-01-16 03:00:00 TS -24.5370 178.706 main 695 695 P_______P_P_P_ SH091981 -24.5875 178.700 40 0 -24.3498 178.681 47 986 -24.6232 178.743 2 40 -24.5875 178.700 TC 40 15 201
1981011S12185 1981 2 SP MM ARTHUR 1981-01-16 06:00:00 TS -25.2057 178.411 main 771 771 O_______P_O_O_ jtwc_sh SH091981 -25.3000 178.400 35 0 -24.9228 178.444 45 987 -25.3000 178.400 2 35 -25.3000 178.400 TC 35 13 203
1981011S12185 1981 2 SP MM ARTHUR 1981-01-16 09:00:00 TS -25.7361 178.149 main 827 827 P_______P_P_P_ SH091981 -25.8173 178.150 32 -1 -25.4843 178.209 42 988 -25.8256 178.088 2 33 -25.8173 178.150 TC 32 10 206
1981011S12185 1981 2 SP MM ARTHUR 1981-01-16 12:00:00 TS -26.1436 177.910 40 990 wellington main 872 872 O_______O_P_O_ jtwc_sh SH091981 -26.2000 177.900 30 -1 -26.0000 178.000 40 990 -26.2221 177.808 2 32 -26.2000 177.900 TC 30 9 209
1981011S12185 1981 2 SP MM ARTHUR 1981-01-16 15:00:00 TS -26.4905 177.688 main 916 916 P_______P_P_P_ SH091981 -26.5152 177.613 30 -1 -26.4448 177.833 37 991 -26.5326 177.549 2 31 -26.5152 177.613 TC 30 8 209
1981011S12185 1981 2 SP MM ARTHUR 1981-01-16 18:00:00 TS -26.8149 177.501 main 951 924 O_______P_O_O_ jtwc_sh SH091981 -26.8000 177.300 30 -1 -26.8297 177.702 35 993 -26.8000 177.300 1 30 -26.8000 177.300 TC 30 7 186
1981011S12185 1981 2 SP MM ARTHUR 1981-01-16 21:00:00 NR -27.1748 177.595 main 924 890 ________P_____ SH091981 -1 -27.1748 177.595 32 995 1 TC 7 181
1981011S12185 1981 2 SP MM ARTHUR 1981-01-17 00:00:00 NR -27.5000 177.500 30 997 wellington main 890 ________O_____ -1 -27.5000 177.500 30 997 1 7 196

Digital Typhoon Data and Search

About IBTrACS Database

This database is a web-friendly format of International Best Track Archive for Climate Stewardship (IBTrACS), a global best track data archive curated by NOAA dating back to 1842.

Updated: 2021-10-21